Time;durP1;ratioP1;P1;durP2;ratioP2;P2;SDS_P1;SDS_P2;PMS_P1;PMS_P2;Temp;Humidity;BMP_temperature;BMP_pressure;BME280_temperature;BME280_humidity;BME280_pressure;Samples;Min_cycle;Max_cycle;Signal;HPM_P1;HPM_P2
2023/12/14 00:02:04;;;;;;;7.95;7.10;;;;;;;5.53;99.48;99991.50;7390314;19;20765;-77
2023/12/14 00:04:31;;;;;;;7.80;7.00;;;;;;;5.49;99.02;99984.91;7390128;19;20356;-78
2023/12/14 00:06:58;;;;;;;7.97;7.18;;;;;;;5.47;99.14;99995.56;7391264;19;20349;-79
2023/12/14 00:09:24;;;;;;;8.10;7.30;;;;;;;5.46;99.40;99987.84;7389445;19;20365;-78
2023/12/14 00:11:51;;;;;;;9.00;7.57;;;;;;;5.48;99.36;99999.88;7392660;19;20345;-78
2023/12/14 00:14:18;;;;;;;8.60;7.68;;;;;;;5.48;99.35;99999.88;7390733;19;20348;-78
2023/12/14 00:16:45;;;;;;;8.63;7.47;;;;;;;5.50;99.30;100004.94;7390999;19;20360;-78
2023/12/14 00:19:11;;;;;;;9.23;8.00;;;;;;;5.51;99.32;100002.16;7392365;19;20904;-78
2023/12/14 00:21:38;;;;;;;9.13;8.23;;;;;;;5.53;99.25;100012.53;7391830;19;20893;-78
2023/12/14 00:24:06;;;;;;;8.70;7.80;;;;;;;5.53;99.44;100017.81;7390429;19;20382;-78
2023/12/14 00:26:33;;;;;;;10.32;8.50;;;;;;;5.50;99.08;100016.31;7394519;19;20932;-78
2023/12/14 00:28:59;;;;;;;9.18;8.25;;;;;;;5.45;99.20;100023.03;7394698;19;20361;-78
2023/12/14 00:31:28;;;;;;;9.82;8.93;;;;;;;5.43;98.95;100025.00;7389842;19;20415;-78
2023/12/14 00:33:55;;;;;;;9.98;8.32;;;;;;;5.39;99.23;100028.91;7392408;19;20416;-79
2023/12/14 00:36:22;;;;;;;9.90;8.73;;;;;;;5.36;99.11;100032.69;7387388;19;20360;-78
2023/12/14 00:38:48;;;;;;;9.73;8.73;;;;;;;5.30;99.47;100039.38;7391994;19;20391;-79
2023/12/14 00:41:16;;;;;;;10.85;9.75;;;;;;;5.28;99.27;100043.16;7390466;19;20879;-78
2023/12/14 00:43:43;;;;;;;10.45;9.20;;;;;;;5.28;99.61;100043.97;7389356;19;20365;-78
2023/12/14 00:46:11;;;;;;;11.85;9.80;;;;;;;5.31;99.87;100056.84;7391466;19;20378;-78
2023/12/14 00:48:38;;;;;;;10.07;8.98;;;;;;;5.29;99.60;100058.78;7397880;19;20373;-78
2023/12/14 00:51:05;;;;;;;10.75;9.65;;;;;;;5.26;99.54;100061.72;7399973;19;20329;-78
2023/12/14 00:53:31;;;;;;;10.80;9.70;;;;;;;5.26;99.55;100056.47;7397337;19;20372;-78
2023/12/14 00:55:58;;;;;;;9.93;9.02;;;;;;;5.30;99.77;100060.44;7394281;19;20774;-78
2023/12/14 00:58:25;;;;;;;9.85;8.65;;;;;;;5.27;99.14;100065.16;7395027;19;20348;-78
2023/12/14 01:00:54;;;;;;;8.50;7.70;;;;;;;5.25;99.09;100078.50;7396837;19;20321;-78
2023/12/14 01:03:21;;;;;;;8.65;7.85;;;;;;;5.21;99.20;100087.66;7400118;19;20403;-78
2023/12/14 01:05:48;;;;;;;8.77;7.93;;;;;;;5.22;99.29;100099.81;7394600;19;20344;-78
2023/12/14 01:08:14;;;;;;;7.80;7.00;;;;;;;5.24;99.29;100102.31;7394900;19;20357;-78
2023/12/14 01:10:41;;;;;;;7.90;7.20;;;;;;;5.21;98.74;100105.25;7395383;19;20366;-78
2023/12/14 01:13:13;;;;;;;8.57;7.78;;;;;;;5.21;99.23;100110.53;7394886;19;21268;-78
2023/12/14 01:15:40;;;;;;;8.95;8.15;;;;;;;5.17;98.94;100104.72;7394258;19;20912;-78
2023/12/14 01:18:07;;;;;;;9.35;8.38;;;;;;;5.18;98.74;100111.63;7397712;19;20341;-78
2023/12/14 01:20:34;;;;;;;9.00;8.10;;;;;;;5.18;98.72;100119.50;7398006;19;20940;-78
2023/12/14 01:23:01;;;;;;;7.90;7.10;;;;;;;5.10;98.64;100124.75;7395146;19;20399;-77
2023/12/14 01:25:27;;;;;;;7.72;7.03;;;;;;;5.10;98.69;100128.19;7398307;19;20433;-78
2023/12/14 01:27:54;;;;;;;7.63;6.93;;;;;;;5.05;98.60;100135.69;7395730;19;20474;-78
2023/12/14 01:30:21;;;;;;;8.25;7.30;;;;;;;5.03;98.79;100136.84;7395689;19;20381;-79
2023/12/14 01:32:48;;;;;;;7.80;7.00;;;;;;;4.98;99.09;100137.28;7395489;19;20428;-78
2023/12/14 01:35:15;;;;;;;9.30;7.55;;;;;;;4.97;99.29;100138.25;7397378;19;20700;-78
2023/12/14 01:37:42;;;;;;;8.38;7.47;;;;;;;4.96;99.22;100141.06;7394397;19;20862;-77
2023/12/14 01:40:09;;;;;;;8.07;7.28;;;;;;;4.94;99.31;100154.34;7396537;19;20357;-78
2023/12/14 01:42:35;;;;;;;7.85;7.10;;;;;;;4.95;99.33;100157.78;7394613;19;20352;-77
2023/12/14 01:45:04;;;;;;;8.53;7.73;;;;;;;4.97;99.66;100156.66;7395014;19;20377;-78
2023/12/14 01:47:31;;;;;;;7.70;6.90;;;;;;;4.87;99.03;100154.13;7395590;19;20734;-78
2023/12/14 01:49:57;;;;;;;8.10;7.30;;;;;;;4.86;99.06;100162.16;7395633;19;20402;-78
2023/12/14 01:52:24;;;;;;;7.60;6.90;;;;;;;4.83;99.29;100159.84;7397320;19;20355;-78
2023/12/14 01:54:51;;;;;;;8.05;7.25;;;;;;;4.77;99.50;100166.50;7394648;19;20852;-78
2023/12/14 01:57:18;;;;;;;8.55;7.75;;;;;;;4.75;99.71;100171.09;7393628;19;20857;-78
2023/12/14 01:59:45;;;;;;;8.02;7.22;;;;;;;4.69;99.51;100182.19;7395533;19;20345;-78
2023/12/14 02:02:11;;;;;;;8.98;7.47;;;;;;;4.66;99.63;100188.59;7396797;19;20382;-78
2023/12/14 02:04:38;;;;;;;8.63;7.75;;;;;;;4.64;99.87;100180.03;7392927;19;20888;-78
2023/12/14 02:07:05;;;;;;;8.82;7.90;;;;;;;4.64;100.00;100189.72;7392689;19;20372;-78
2023/12/14 02:09:32;;;;;;;8.63;7.72;;;;;;;4.66;99.85;100193.03;7392663;19;20352;-78
2023/12/14 02:11:59;;;;;;;8.05;7.20;;;;;;;4.63;99.93;100198.56;7395536;19;20421;-78
2023/12/14 02:14:26;;;;;;;8.50;7.65;;;;;;;4.61;100.00;100196.09;7393297;19;20823;-78
2023/12/14 02:16:53;;;;;;;8.80;7.90;;;;;;;4.64;100.00;100200.22;7390665;19;20360;-78
2023/12/14 02:19:20;;;;;;;8.80;7.90;;;;;;;4.63;100.00;100199.41;7392737;19;20375;-79
2023/12/14 02:21:46;;;;;;;8.80;7.90;;;;;;;4.66;100.00;100206.16;7391410;19;20344;-78
2023/12/14 02:24:13;;;;;;;8.95;8.05;;;;;;;4.65;100.00;100199.22;7388672;19;20419;-78
2023/12/14 02:26:40;;;;;;;9.00;8.05;;;;;;;4.68;100.00;100209.47;7394565;19;20687;-78
2023/12/14 02:29:07;;;;;;;9.63;8.63;;;;;;;4.69;100.00;100211.91;7394165;19;20344;-78
2023/12/14 02:31:33;;;;;;;8.75;7.85;;;;;;;4.69;100.00;100216.34;7394248;19;20353;-78
2023/12/14 02:34:00;;;;;;;9.40;8.50;;;;;;;4.69;99.89;100218.97;7391886;19;20859;-78
2023/12/14 02:36:27;;;;;;;9.52;8.55;;;;;;;4.73;99.76;100225.59;7390150;19;20356;-78
2023/12/14 02:38:53;;;;;;;9.55;8.63;;;;;;;4.73;99.87;100220.34;7395144;19;20364;-78
2023/12/14 02:41:20;;;;;;;9.80;8.80;;;;;;;4.75;99.74;100225.44;7393272;19;20398;-78
2023/12/14 02:43:47;;;;;;;10.82;9.73;;;;;;;4.75;99.93;100228.91;7393173;19;20686;-78
2023/12/14 02:46:15;;;;;;;10.98;9.88;;;;;;;4.74;99.83;100232.50;7389257;19;20768;-78
2023/12/14 02:48:43;;;;;;;10.75;9.70;;;;;;;4.75;99.73;100236.78;7386959;19;20903;-78
2023/12/14 02:51:14;;;;;;;11.20;9.93;;;;;;;4.76;99.95;100243.72;7394125;19;20444;-78
2023/12/14 02:53:42;;;;;;;11.00;9.85;;;;;;;4.76;100.00;100246.34;7393840;19;20432;-78
2023/12/14 02:56:10;;;;;;;10.70;9.63;;;;;;;4.74;99.56;100248.28;7390838;19;20365;-78
2023/12/14 02:58:38;;;;;;;11.98;10.68;;;;;;;4.77;99.63;100247.16;7393362;19;20385;-78
2023/12/14 03:01:05;;;;;;;12.00;10.80;;;;;;;4.78;99.67;100249.63;7393087;19;20356;-78
2023/12/14 03:03:32;;;;;;;13.13;11.73;;;;;;;4.82;99.79;100256.22;7390981;19;20407;-78
2023/12/14 03:05:59;;;;;;;13.48;12.07;;;;;;;4.84;99.77;100259.53;7394274;19;20436;-78
2023/12/14 03:08:25;;;;;;;13.18;11.88;;;;;;;4.87;99.71;100261.88;7390526;19;20957;-78
2023/12/14 03:10:52;;;;;;;13.20;11.80;;;;;;;4.91;99.49;100270.31;7390739;19;20888;-78
2023/12/14 03:13:19;;;;;;;11.30;10.10;;;;;;;4.92;99.16;100265.88;7393654;19;20336;-78
2023/12/14 03:15:46;;;;;;;11.85;10.48;;;;;;;4.88;98.77;100266.16;7389534;19;20369;-78
2023/12/14 03:18:13;;;;;;;11.98;10.45;;;;;;;4.83;98.78;100263.16;7393079;19;20361;-78
2023/12/14 03:20:40;;;;;;;13.00;11.30;;;;;;;4.82;99.00;100266.72;7391182;19;20383;-78
2023/12/14 03:23:06;;;;;;;12.73;11.40;;;;;;;4.82;99.00;100272.00;7391593;19;20916;-78
2023/12/14 03:25:33;;;;;;;14.05;11.38;;;;;;;4.83;99.03;100271.03;7391259;19;20686;-79
2023/12/14 03:28:00;;;;;;;14.57;12.07;;;;;;;4.84;99.36;100275.28;7393267;19;20351;-79
2023/12/14 03:30:27;;;;;;;13.48;11.65;;;;;;;4.86;99.27;100273.34;7393728;19;20345;-79
2023/12/14 03:32:54;;;;;;;13.63;12.23;;;;;;;4.88;99.27;100273.22;7391833;19;20385;-79
2023/12/14 03:35:20;;;;;;;13.38;10.80;;;;;;;4.87;99.05;100285.53;7389552;19;20543;-79
2023/12/14 03:37:47;;;;;;;11.60;10.40;;;;;;;4.84;98.88;100288.44;7391413;19;20348;-79
2023/12/14 03:40:14;;;;;;;12.57;10.60;;;;;;;4.79;99.01;100282.00;7390472;19;20848;-79
2023/12/14 03:42:41;;;;;;;12.05;10.82;;;;;;;4.75;98.91;100289.34;7388017;19;20320;-79
2023/12/14 03:45:09;;;;;;;12.60;11.20;;;;;;;4.74;99.16;100292.09;7393548;19;20361;-79
2023/12/14 03:47:35;;;;;;;14.52;11.88;;;;;;;4.71;99.20;100295.84;7389541;19;20381;-79
2023/12/14 03:50:03;;;;;;;13.73;12.32;;;;;;;4.73;99.46;100299.16;7389521;19;20349;-79
2023/12/14 03:52:31;;;;;;;14.80;13.20;;;;;;;4.73;99.48;100304.41;7390656;19;20349;-79
2023/12/14 03:54:58;;;;;;;14.18;12.68;;;;;;;4.70;99.31;100304.72;7392125;19;20436;-79
2023/12/14 03:57:25;;;;;;;14.47;12.87;;;;;;;4.65;99.31;100306.94;7392093;19;20727;-78
2023/12/14 03:59:51;;;;;;;16.17;13.98;;;;;;;4.67;99.54;100311.06;7391337;19;20365;-78
2023/12/14 04:02:18;;;;;;;16.38;13.40;;;;;;;4.66;99.62;100314.69;7392616;19;20345;-78
2023/12/14 04:04:46;;;;;;;14.02;12.55;;;;;;;4.64;99.52;100321.06;7389449;19;20888;-78
2023/12/14 04:07:14;;;;;;;15.70;13.70;;;;;;;4.62;99.35;100323.84;7390020;19;20405;-78
2023/12/14 04:09:41;;;;;;;16.00;14.07;;;;;;;4.61;99.46;100327.44;7391501;19;20332;-78
2023/12/14 04:12:07;;;;;;;16.70;13.57;;;;;;;4.61;99.62;100331.84;7391449;19;20384;-78
2023/12/14 04:14:34;;;;;;;16.58;14.13;;;;;;;4.58;99.70;100338.22;7389907;19;20360;-78
2023/12/14 04:17:01;;;;;;;15.70;14.02;;;;;;;4.56;99.59;100334.91;7391369;19;20352;-78
2023/12/14 04:19:28;;;;;;;15.13;12.88;;;;;;;4.55;99.61;100338.53;7389831;19;20328;-78
2023/12/14 04:21:54;;;;;;;14.45;12.77;;;;;;;4.56;99.52;100349.84;7397634;19;20355;-78
2023/12/14 04:24:22;;;;;;;13.88;12.40;;;;;;;4.51;99.58;100360.81;7397788;19;20352;-78
2023/12/14 04:26:48;;;;;;;15.32;13.18;;;;;;;4.52;99.30;100364.25;7398306;19;20372;-78
2023/12/14 04:29:15;;;;;;;16.55;13.60;;;;;;;4.54;99.44;100370.19;7394822;19;20377;-78
2023/12/14 04:31:42;;;;;;;15.02;13.38;;;;;;;4.56;99.62;100381.38;7400234;19;20360;-78
2023/12/14 04:34:13;;;;;;;13.48;12.05;;;;;;;4.58;99.18;100384.69;7396364;19;20924;-78
2023/12/14 04:36:40;;;;;;;14.63;12.95;;;;;;;4.57;99.36;100386.50;7399525;19;20352;-78
2023/12/14 04:39:07;;;;;;;13.80;11.95;;;;;;;4.59;98.99;100386.34;7397971;19;20377;-78
2023/12/14 04:41:34;;;;;;;12.98;11.57;;;;;;;4.59;99.00;100388.97;7397434;19;20381;-78
2023/12/14 04:44:00;;;;;;;14.25;11.65;;;;;;;4.62;99.43;100397.41;7399295;19;21904;-78
2023/12/14 04:46:27;;;;;;;11.60;10.40;;;;;;;4.62;99.01;100396.56;7397184;19;20744;-78
2023/12/14 04:48:55;;;;;;;10.40;9.30;;;;;;;4.59;98.25;100396.84;7395038;19;20710;-78
2023/12/14 04:51:21;;;;;;;10.98;9.85;;;;;;;4.55;98.22;100392.84;7398396;19;20380;-78
2023/12/14 04:53:48;;;;;;;10.60;9.40;;;;;;;4.56;98.45;100408.47;7395455;19;20884;-78
2023/12/14 04:56:15;;;;;;;10.35;9.35;;;;;;;4.57;98.29;100402.25;7397316;19;20369;-78
2023/12/14 04:58:42;;;;;;;10.40;9.40;;;;;;;4.59;98.29;100407.34;7393879;19;21212;-78
2023/12/14 05:01:09;;;;;;;10.50;9.38;;;;;;;4.57;98.31;100419.81;7397419;19;20352;-78
2023/12/14 05:03:36;;;;;;;10.93;9.80;;;;;;;4.60;98.67;100422.97;7396854;19;20923;-79
2023/12/14 05:06:03;;;;;;;11.38;10.18;;;;;;;4.62;98.67;100425.47;7397236;19;20392;-79
2023/12/14 05:08:29;;;;;;;10.55;9.45;;;;;;;4.59;98.09;100429.22;7395718;19;20356;-79
2023/12/14 05:10:56;;;;;;;10.90;9.65;;;;;;;4.58;98.13;100426.72;7390979;19;20682;-78
2023/12/14 05:13:23;;;;;;;11.25;9.30;;;;;;;4.55;98.32;100425.22;7395173;19;20349;-78
2023/12/14 05:15:51;;;;;;;9.88;8.88;;;;;;;4.54;98.29;100438.50;7398438;19;20443;-78
2023/12/14 05:18:18;;;;;;;10.45;9.45;;;;;;;4.56;98.40;100444.44;7396398;19;20352;-78
2023/12/14 05:20:45;;;;;;;9.48;8.57;;;;;;;4.53;98.04;100449.94;7396750;19;20373;-78
2023/12/14 05:23:12;;;;;;;10.63;9.13;;;;;;;4.49;98.01;100450.25;7393721;19;20381;-78
2023/12/14 05:25:39;;;;;;;9.90;8.80;;;;;;;4.47;98.06;100444.31;7395318;19;20551;-77
2023/12/14 05:28:06;;;;;;;10.18;9.10;;;;;;;4.45;98.29;100443.63;7395903;19;20365;-77
2023/12/14 05:30:33;;;;;;;10.48;9.38;;;;;;;4.47;98.43;100454.81;7394236;19;20341;-78
2023/12/14 05:33:00;;;;;;;10.98;9.77;;;;;;;4.46;98.14;100457.56;7396331;19;20412;-78
2023/12/14 05:35:27;;;;;;;10.98;9.88;;;;;;;4.48;98.25;100464.38;7393388;19;20422;-78
2023/12/14 05:37:53;;;;;;;11.10;9.93;;;;;;;4.45;98.06;100469.88;7393392;19;20343;-78
2023/12/14 05:40:20;;;;;;;11.00;9.90;;;;;;;4.44;98.29;100464.75;7397034;19;20349;-78
2023/12/14 05:42:47;;;;;;;12.43;10.15;;;;;;;4.47;98.54;100467.94;7395871;19;20664;-78
2023/12/14 05:45:14;;;;;;;11.40;10.30;;;;;;;4.47;98.51;100473.19;7395862;19;20368;-78
2023/12/14 05:47:41;;;;;;;12.02;10.75;;;;;;;4.52;98.53;100480.66;7394444;19;20356;-78
2023/12/14 05:50:09;;;;;;;11.32;10.13;;;;;;;4.55;98.63;100483.00;7397466;19;20828;-78
2023/12/14 05:52:37;;;;;;;12.00;10.68;;;;;;;4.59;98.29;100480.91;7396621;19;20357;-78
2023/12/14 05:55:04;;;;;;;10.18;9.18;;;;;;;4.56;98.19;100475.94;7396431;19;20432;-78
2023/12/14 05:57:31;;;;;;;10.30;9.30;;;;;;;4.55;98.20;100475.13;7395049;19;20873;-78
2023/12/14 05:59:58;;;;;;;9.38;8.48;;;;;;;4.54;97.80;100494.47;7395048;19;20356;-78
2023/12/14 06:02:24;;;;;;;10.60;9.60;;;;;;;4.57;97.94;100495.97;7396720;19;20337;-78
2023/12/14 06:04:51;;;;;;;9.77;8.73;;;;;;;4.57;97.80;100507.34;7393593;19;20651;-78
2023/12/14 06:07:18;;;;;;;9.65;8.43;;;;;;;4.56;97.96;100505.66;7396634;19;20364;-78
2023/12/14 06:09:45;;;;;;;10.27;9.27;;;;;;;4.58;97.91;100506.38;7396333;19;20872;-83
2023/12/14 06:12:13;;;;;;;314.75;183.20;;;;;;;4.62;97.84;100506.91;7389590;19;20349;-81
2023/12/14 06:14:40;;;;;;;9.57;8.65;;;;;;;4.66;97.51;100521.44;7393898;19;20361;-83
2023/12/14 06:17:06;;;;;;;9.60;8.70;;;;;;;4.69;97.46;100524.59;7391643;19;20903;-83
2023/12/14 06:19:33;;;;;;;9.00;8.10;;;;;;;4.77;97.45;100520.44;7393074;19;20898;-83
2023/12/14 06:22:00;;;;;;;11.38;10.00;;;;;;;4.81;97.84;100524.44;7396550;19;20356;-83
2023/12/14 06:24:27;;;;;;;9.50;8.55;;;;;;;4.86;97.32;100519.59;7396500;19;20707;-83
2023/12/14 06:26:53;;;;;;;8.93;8.02;;;;;;;4.92;97.23;100526.06;7401699;19;20363;-82
2023/12/14 06:29:20;;;;;;;9.55;8.30;;;;;;;4.93;97.03;100527.72;7396692;19;20360;-82
2023/12/14 06:31:47;;;;;;;10.13;9.18;;;;;;;4.90;96.44;100529.66;7402135;19;20351;-82
2023/12/14 06:34:14;;;;;;;9.75;8.75;;;;;;;4.87;96.43;100524.69;7401924;19;20404;-82
2023/12/14 06:36:43;;;;;;;9.40;8.50;;;;;;;4.86;96.40;100536.19;7402509;19;20381;-82
2023/12/14 06:39:10;;;;;;;9.65;8.60;;;;;;;4.86;96.43;100538.81;7397034;19;20345;-82
2023/12/14 06:41:37;;;;;;;9.75;8.75;;;;;;;4.87;96.39;100543.09;7398390;19;20349;-82
2023/12/14 06:44:05;;;;;;;9.07;8.18;;;;;;;4.84;96.22;100548.63;7400008;19;20381;-82
2023/12/14 06:46:31;;;;;;;9.15;8.15;;;;;;;4.85;96.24;100555.56;7398814;19;20384;-82
2023/12/14 06:48:58;;;;;;;9.27;8.30;;;;;;;4.82;96.13;100566.34;7397034;19;20361;-83
2023/12/14 06:51:25;;;;;;;9.13;8.23;;;;;;;4.82;96.12;100563.72;7399386;19;20852;-82
2023/12/14 06:53:52;;;;;;;9.02;7.47;;;;;;;4.82;95.92;100561.06;7396335;19;20435;-82
2023/12/14 06:56:19;;;;;;;9.43;8.40;;;;;;;4.79;96.16;100556.13;7398120;19;20372;-80
2023/12/14 06:58:49;;;;;;;9.80;8.32;;;;;;;4.84;96.21;100555.69;7394144;19;20363;-80
2023/12/14 07:01:19;;;;;;;9.38;8.38;;;;;;;4.90;95.93;100560.38;7394965;19;20352;-82
2023/12/14 07:03:47;;;;;;;9.68;8.68;;;;;;;4.94;95.60;100580.16;7399828;19;20364;-82
2023/12/14 07:06:15;;;;;;;8.90;8.00;;;;;;;4.96;95.51;100580.03;7399594;19;20349;-82
2023/12/14 07:08:43;;;;;;;9.25;8.32;;;;;;;4.94;95.30;100589.84;7395368;19;20364;-80
2023/12/14 07:11:11;;;;;;;8.77;7.97;;;;;;;4.93;95.11;100589.03;7398948;19;20419;-81
2023/12/14 07:13:39;;;;;;;23.25;15.23;;;;;;;4.92;95.43;100604.94;7398837;19;20365;-82
2023/12/14 07:16:10;;;;;;;23.42;14.70;;;;;;;4.86;95.14;100601.88;7404952;19;20369;-81
2023/12/14 07:18:38;;;;;;;14.70;11.27;;;;;;;4.87;95.48;100616.69;7404122;19;20355;-82
2023/12/14 07:21:06;;;;;;;26.52;16.42;;;;;;;4.88;95.66;100613.09;7402051;19;20356;-82
2023/12/14 07:23:33;;;;;;;9.67;8.70;;;;;;;4.89;95.38;100619.19;7399784;19;20369;-82
2023/12/14 07:26:00;;;;;;;10.77;9.40;;;;;;;4.84;95.26;100616.13;7399921;19;20393;-82
2023/12/14 07:28:30;;;;;;;12.30;9.75;;;;;;;4.80;95.08;100615.59;7401937;19;20348;-81
2023/12/14 07:30:57;;;;;;;9.53;8.63;;;;;;;4.81;95.34;100630.41;7391147;19;22175;-81
2023/12/14 07:33:24;;;;;;;25.80;17.02;;;;;;;4.80;95.53;100631.38;7400722;19;20367;-79
2023/12/14 07:35:51;;;;;;;10.27;9.33;;;;;;;4.79;95.36;100640.22;7404408;19;20363;-82
2023/12/14 07:38:18;;;;;;;10.65;9.65;;;;;;;4.79;95.77;100655.97;7409122;19;20346;-83
2023/12/14 07:40:46;;;;;;;10.48;9.48;;;;;;;4.78;95.56;100651.72;7416133;19;20356;-82
2023/12/14 07:43:13;;;;;;;12.30;10.93;;;;;;;4.78;95.72;100649.09;7407117;19;20364;-83
2023/12/14 07:45:40;;;;;;;19.38;14.48;;;;;;;4.77;95.50;100662.34;7392837;19;20341;-83
2023/12/14 07:48:07;;;;;;;10.40;9.30;;;;;;;4.77;95.67;100664.97;7395661;19;20361;-82
2023/12/14 07:50:34;;;;;;;11.25;10.15;;;;;;;4.75;95.76;100674.78;7396207;19;20372;-82
2023/12/14 07:53:00;;;;;;;10.27;9.27;;;;;;;4.75;96.01;100680.88;7400455;19;20348;-82
2023/12/14 07:55:28;;;;;;;9.57;8.68;;;;;;;4.73;95.95;100682.81;7390541;19;20352;-82
2023/12/14 07:57:54;;;;;;;9.50;8.60;;;;;;;4.72;96.17;100696.94;7396180;19;20407;-82
2023/12/14 08:00:21;;;;;;;9.50;8.55;;;;;;;4.73;96.37;100695.94;7396568;19;20364;-83
2023/12/14 08:02:48;;;;;;;8.65;7.85;;;;;;;4.72;96.26;100696.94;7398885;19;20364;-82
2023/12/14 08:05:14;;;;;;;8.40;7.57;;;;;;;4.70;95.99;100704.13;7397187;19;20367;-82
2023/12/14 08:07:41;;;;;;;8.68;7.78;;;;;;;4.70;96.09;100704.13;7396594;19;20364;-83
2023/12/14 08:10:08;;;;;;;7.68;6.88;;;;;;;4.67;96.08;100712.25;7390891;19;20368;-83
2023/12/14 08:12:35;;;;;;;7.95;7.18;;;;;;;4.69;96.14;100707.69;7394167;19;20381;-83
2023/12/14 08:15:02;;;;;;;7.85;7.05;;;;;;;4.71;95.89;100726.78;7396557;19;20355;-83
2023/12/14 08:17:30;;;;;;;7.20;6.50;;;;;;;4.70;96.12;100725.13;7394052;19;20370;-83
2023/12/14 08:19:56;;;;;;;7.43;6.68;;;;;;;4.68;96.03;100727.06;7397823;19;20364;-83
2023/12/14 08:22:24;;;;;;;6.60;5.97;;;;;;;4.66;95.85;100724.56;7394438;19;20670;-83
2023/12/14 08:24:51;;;;;;;6.85;6.13;;;;;;;4.69;95.77;100728.72;7394301;19;20373;-84
2023/12/14 08:27:17;;;;;;;7.30;6.50;;;;;;;4.72;96.11;100744.22;7393556;19;20356;-83
2023/12/14 08:29:45;;;;;;;6.50;5.90;;;;;;;4.74;95.90;100747.56;7397744;19;20361;-83
2023/12/14 08:32:12;;;;;;;6.70;6.00;;;;;;;4.75;96.06;100751.81;7409299;19;20384;-83
2023/12/14 08:34:40;;;;;;;6.30;5.65;;;;;;;4.79;95.91;100761.09;7402237;19;20353;-83
2023/12/14 08:37:07;;;;;;;5.65;5.15;;;;;;;4.77;95.43;100765.66;7399140;19;20349;-83
2023/12/14 08:39:34;;;;;;;5.78;4.90;;;;;;;4.76;95.40;100764.03;7400887;19;20815;-82
2023/12/14 08:42:01;;;;;;;5.25;4.75;;;;;;;4.73;95.50;100771.34;7404656;19;20365;-83
2023/12/14 08:44:28;;;;;;;5.82;5.03;;;;;;;4.72;95.24;100770.50;7399171;19;20375;-83
2023/12/14 08:46:55;;;;;;;5.55;4.50;;;;;;;4.74;95.48;100781.72;7402746;19;20685;-83
2023/12/14 08:49:23;;;;;;;4.68;3.90;;;;;;;4.71;94.85;100787.22;7405593;19;20488;-83
2023/12/14 08:51:50;;;;;;;4.07;3.67;;;;;;;4.73;94.96;100771.34;7406029;19;20356;-83
2023/12/14 08:54:17;;;;;;;4.40;4.00;;;;;;;4.73;94.60;100785.28;7414157;19;20368;-83
2023/12/14 08:56:44;;;;;;;5.05;3.97;;;;;;;4.77;94.53;100788.50;7418285;19;20400;-83
2023/12/14 08:59:10;;;;;;;5.50;4.15;;;;;;;4.80;94.65;100803.97;7417266;19;20373;-83
2023/12/14 09:01:39;;;;;;;5.22;4.60;;;;;;;4.82;94.43;100804.69;7420727;19;20380;-83
2023/12/14 09:04:06;;;;;;;5.28;4.47;;;;;;;4.83;94.27;100815.06;7417717;19;20360;-83
2023/12/14 09:06:33;;;;;;;4.97;4.47;;;;;;;4.87;94.17;100819.09;7422228;19;20356;-83
2023/12/14 09:09:00;;;;;;;4.85;4.30;;;;;;;4.91;94.37;100822.28;7424043;19;20376;-83
2023/12/14 09:11:27;;;;;;;5.22;4.30;;;;;;;4.93;94.31;100835.28;7426558;19;20356;-83
2023/12/14 09:13:53;;;;;;;4.25;3.83;;;;;;;4.90;93.93;100834.56;7427092;19;20397;-83
2023/12/14 09:16:20;;;;;;;4.28;3.75;;;;;;;4.93;93.91;100835.28;7425380;19;20435;-83
2023/12/14 09:18:47;;;;;;;5.35;3.97;;;;;;;4.94;93.87;100837.78;7407891;19;20374;-83
2023/12/14 09:21:14;;;;;;;4.20;3.70;;;;;;;4.96;93.69;100850.78;7400537;19;20349;-84
2023/12/14 09:23:42;;;;;;;4.68;4.07;;;;;;;4.95;93.84;100843.84;7401386;19;20362;-84
2023/12/14 09:26:10;;;;;;;4.68;4.00;;;;;;;4.95;93.58;100855.22;7399200;19;20798;-83
2023/12/14 09:28:37;;;;;;;4.50;4.10;;;;;;;4.96;94.02;100851.63;7401494;19;20361;-83
2023/12/14 09:31:04;;;;;;;4.90;4.40;;;;;;;5.00;94.03;100857.44;7397844;19;20432;-83
2023/12/14 09:33:34;;;;;;;4.32;3.90;;;;;;;5.02;94.10;100861.59;7396799;19;20403;-83
2023/12/14 09:36:01;;;;;;;5.40;4.40;;;;;;;5.05;94.36;100861.31;7399294;19;20920;-83
2023/12/14 09:38:28;;;;;;;6.63;4.30;;;;;;;5.06;94.12;100862.19;7399350;19;20882;-83
2023/12/14 09:40:55;;;;;;;5.28;4.47;;;;;;;5.06;93.78;100867.44;7398040;19;20361;-83
2023/12/14 09:43:23;;;;;;;5.10;4.30;;;;;;;5.03;93.96;100865.88;7398126;19;20413;-84
2023/12/14 09:45:51;;;;;;;5.63;4.03;;;;;;;5.01;93.92;100864.34;7398315;19;20360;-84
2023/12/14 09:48:17;;;;;;;5.07;4.10;;;;;;;5.08;94.54;100870.75;7400318;19;20349;-84
2023/12/14 09:50:46;;;;;;;4.90;4.20;;;;;;;5.10;94.52;100866.19;7398002;19;20359;-84
2023/12/14 09:53:13;;;;;;;4.40;4.00;;;;;;;5.15;94.49;100871.06;7397898;19;20344;-84
2023/12/14 09:55:40;;;;;;;5.70;4.35;;;;;;;5.18;94.41;100876.84;7399069;19;21126;-84
2023/12/14 09:58:09;;;;;;;5.18;4.43;;;;;;;5.23;94.10;100872.03;7399360;19;20903;-84
2023/12/14 10:00:40;;;;;;;4.93;4.43;;;;;;;5.23;94.05;100879.09;7395235;19;20365;-84
2023/12/14 10:03:19;;;;;;;5.85;4.75;;;;;;;5.26;94.20;100890.16;7395121;19;20324;-84
2023/12/14 10:05:47;;;;;;;5.47;4.88;;;;;;;5.23;93.86;100889.63;7395262;19;20356;-84
2023/12/14 10:08:16;;;;;;;6.03;5.35;;;;;;;5.21;94.03;100897.63;7396036;19;20356;-84
2023/12/14 10:10:44;;;;;;;6.80;5.40;;;;;;;5.21;93.89;100900.25;7398255;19;20367;-83
2023/12/14 10:13:12;;;;;;;7.55;5.50;;;;;;;5.22;93.65;100894.03;7398556;19;20360;-84
2023/12/14 10:15:44;;;;;;;5.70;5.10;;;;;;;5.19;93.67;100896.94;7396537;19;20328;-84
2023/12/14 10:18:11;;;;;;;5.40;4.90;;;;;;;5.18;93.36;100900.50;7398775;19;20343;-84
2023/12/14 10:20:38;;;;;;;5.80;4.90;;;;;;;5.21;93.64;100910.78;7400739;19;20341;-84
2023/12/14 10:23:07;;;;;;;7.20;5.80;;;;;;;5.21;93.35;100908.16;7394479;19;20352;-84
2023/12/14 10:25:35;;;;;;;6.30;5.63;;;;;;;5.23;93.21;100911.47;7399441;19;20341;-84
2023/12/14 10:28:03;;;;;;;6.85;5.78;;;;;;;5.24;93.24;100913.13;7395697;19;20349;-84
2023/12/14 10:30:30;;;;;;;9.35;5.90;;;;;;;5.25;93.09;100913.97;7397131;19;20760;-84
2023/12/14 10:33:01;;;;;;;6.95;5.80;;;;;;;5.26;92.95;100920.91;7395682;19;20420;-84
2023/12/14 10:35:27;;;;;;;6.97;5.93;;;;;;;5.29;93.24;100926.72;7393731;19;20710;-84
2023/12/14 10:37:57;;;;;;;7.60;6.00;;;;;;;5.32;92.91;100936.16;7393090;19;20856;-84
2023/12/14 10:40:26;;;;;;;6.30;5.70;;;;;;;5.30;92.21;100946.78;7397519;19;20364;-84
2023/12/14 10:42:55;;;;;;;7.88;6.20;;;;;;;5.29;92.25;100944.28;7396844;19;20758;-84
2023/12/14 10:45:28;;;;;;;7.30;5.40;;;;;;;5.31;92.47;100943.22;7396903;19;20357;-84
2023/12/14 10:47:58;;;;;;;6.88;5.80;;;;;;;5.35;92.16;100950.81;7398740;19;20381;-84
2023/12/14 10:50:26;;;;;;;6.63;5.38;;;;;;;5.37;91.87;100951.50;7395721;19;20364;-84
2023/12/14 10:52:52;;;;;;;5.80;5.20;;;;;;;5.36;91.33;100958.59;7397710;19;20364;-83
2023/12/14 10:55:33;;;;;;;7.32;5.57;;;;;;;5.37;91.21;100954.16;7396851;19;20359;-83
2023/12/14 10:58:01;;;;;;;5.40;4.90;;;;;;;5.27;91.28;100962.84;7396480;19;20359;-83
2023/12/14 11:00:28;;;;;;;6.43;5.22;;;;;;;5.30;91.38;100957.31;7396211;19;20392;-83
2023/12/14 11:02:57;;;;;;;7.10;5.55;;;;;;;5.27;91.44;100954.97;7395493;19;20793;-83
2023/12/14 11:05:29;;;;;;;6.53;5.55;;;;;;;5.31;91.68;100964.25;7396056;19;20381;-83
2023/12/14 11:08:09;;;;;;;9.07;5.88;;;;;;;5.34;91.55;100973.66;7393669;19;20924;-83
2023/12/14 11:10:41;;;;;;;7.03;5.85;;;;;;;5.38;91.75;100968.97;7395953;19;20360;-83
2023/12/14 11:13:14;;;;;;;7.20;6.07;;;;;;;5.34;91.34;100970.22;7392491;19;20373;-83
2023/12/14 11:15:50;;;;;;;7.68;5.85;;;;;;;5.37;91.67;100983.09;7393120;19;20353;-83
2023/12/14 11:18:21;;;;;;;6.57;5.88;;;;;;;5.36;91.35;100981.44;7393026;19;20344;-83
2023/12/14 11:21:00;;;;;;;8.73;6.65;;;;;;;5.30;91.44;100978.34;7395201;19;20340;-83
2023/12/14 11:23:33;;;;;;;7.18;6.18;;;;;;;5.29;91.67;100984.59;7394174;19;20855;-83
2023/12/14 11:26:10;;;;;;;9.15;6.47;;;;;;;5.30;91.62;100986.25;7402925;19;20360;-83
2023/12/14 11:28:41;;;;;;;6.80;5.88;;;;;;;5.30;91.69;100991.50;7404657;19;20349;-83
2023/12/14 11:31:12;;;;;;;8.23;6.45;;;;;;;5.32;91.69;100994.84;7400236;19;20693;-84